East Jewett, New York
Current Conditions -  °F | °C
As of 5:51 AM on Sunday 26 Oct 2014 (Local Time) from KALB Reporting Station
Overcast Overcast  
Wind Chill: 50°   Ceiling: 6500
Heat Index: 50°   Visibility: 10mi
Dew Point: 42°   Wind: 9mph
Humidity: 74%   Direction: 250°WSW
Pressure: 29.54"   Gusts: NA
Location:  42.23°N, 74.15°W
Report Text: KALB 260951Z 25008KT 10SM FEW040 OVC065 10/06 A2954 RMK AO2 SLP003 OCNL BINOVC T01000056 $
Loading
Personal Weather Stations






























Interactive Weather Map
Tropical Storm Tracking
New forecast layout! Learn more

10-Day Weather Forecast

Advertisements
Track Severe Weather on mobile